Time;durP1;ratioP1;P1;durP2;ratioP2;P2;SDS_P1;SDS_P2;PMS_P1;PMS_P2;Temp;Humidity;BMP_temperature;BMP_pressure;BME280_temperature;BME280_humidity;BME280_pressure;Samples;Min_cycle;Max_cycle;Signal;HPM_P1;HPM_P2
2021/06/15 00:00:43;;;;;;;2.60;1.45;;;;;;;;;;5109377;28;20024;-71
2021/06/15 00:04:27;;;;;;;1.60;1.05;;;;;;;;;;5126010;27;20384;-70
2021/06/15 00:07:10;;;;;;;5.50;1.40;;;;;;;;;;5126398;27;20372;-70
2021/06/15 00:09:36;;;;;;;2.95;1.30;;;;;;;;;;5110447;28;20111;-70
2021/06/15 00:15:02;;;;;;;1.23;1.00;;;;;;;;;;5126355;27;20381;-70
2021/06/15 00:20:22;;;;;;;3.30;1.20;;;;;;;;;;5126512;27;20381;-69
2021/06/15 00:22:48;;;;;;;2.30;1.17;;;;;;;;;;5109272;28;20023;-70
2021/06/15 00:27:08;;;;;;;2.58;1.00;;;;;;;;;;5126046;27;20733;-70
2021/06/15 00:29:34;;;;;;;1.13;0.80;;;;;;;;;;5110535;28;20452;-71
2021/06/15 00:32:00;;;;;;;2.05;1.20;;;;;;;;;;5110114;28;20024;-70
2021/06/15 00:34:26;;;;;;;1.95;1.13;;;;;;;;;;5110508;28;20031;-70
2021/06/15 00:37:11;;;;;;;2.63;1.20;;;;;;;;;;5126552;27;20388;-70
2021/06/15 00:39:37;;;;;;;3.15;1.17;;;;;;;;;;5110429;28;20027;-70
2021/06/15 00:42:06;;;;;;;2.55;1.10;;;;;;;;;;5110555;28;20031;-70
2021/06/15 00:44:32;;;;;;;1.90;1.08;;;;;;;;;;5110604;28;20048;-70
2021/06/15 00:47:51;;;;;;;1.75;1.00;;;;;;;;;;5125958;27;20384;-70
2021/06/15 00:50:18;;;;;;;1.10;0.90;;;;;;;;;;5110540;28;20391;-70
2021/06/15 00:52:45;;;;;;;2.45;1.15;;;;;;;;;;5110447;28;20027;-70
2021/06/15 00:55:11;;;;;;;1.50;1.20;;;;;;;;;;5110017;28;20054;-70
2021/06/15 00:59:44;;;;;;;3.65;1.58;;;;;;;;;;5126576;27;20377;-70
2021/06/15 01:02:10;;;;;;;3.83;1.65;;;;;;;;;;5110208;28;20069;-70
2021/06/15 01:05:03;;;;;;;4.40;1.63;;;;;;;;;;5126437;27;20379;-70
2021/06/15 01:08:05;;;;;;;2.33;1.50;;;;;;;;;;5126153;27;20725;-70
2021/06/15 01:10:43;;;;;;;2.28;1.40;;;;;;;;;;5110534;28;20032;-70
2021/06/15 01:13:30;;;;;;;2.45;1.38;;;;;;;;;;5110443;28;20095;-70
2021/06/15 01:15:59;;;;;;;3.58;1.83;;;;;;;;;;5110014;28;20072;-73
2021/06/15 01:19:00;;;;;;;2.55;1.25;;;;;;;;;;5126673;27;20380;-70
2021/06/15 01:21:27;;;;;;;5.80;1.73;;;;;;;;;;5110472;28;20047;-71
2021/06/15 01:26:46;;;;;;;5.70;2.03;;;;;;;;;;5133429;27;20114;-70
2021/06/15 01:30:30;;;;;;;1.67;1.20;;;;;;;;;;5125900;27;20380;-70
2021/06/15 01:32:57;;;;;;;3.10;1.50;;;;;;;;;;5110659;28;20027;-70
2021/06/15 01:39:23;;;;;;;2.83;1.55;;;;;;;;;;5126623;27;20400;-71
2021/06/15 01:42:24;;;;;;;1.85;1.20;;;;;;;;;;5126141;27;20729;-70
2021/06/15 01:44:59;;;;;;;3.08;1.60;;;;;;;;;;5109344;28;20484;-70
2021/06/15 01:50:03;;;;;;;8.95;1.75;;;;;;;;;;5126165;27;20384;-70
2021/06/15 01:52:34;;;;;;;2.92;1.13;;;;;;;;;;5109266;28;20023;-70
2021/06/15 01:56:09;;;;;;;3.15;1.10;;;;;;;;;;5126680;27;20376;-70
2021/06/15 01:58:37;;;;;;;2.55;1.42;;;;;;;;;;5110372;28;20028;-71
2021/06/15 02:03:04;;;;;;;2.53;1.33;;;;;;;;;;5126503;27;20404;-70
2021/06/15 02:05:42;;;;;;;1.75;1.20;;;;;;;;;;5110192;28;20028;-70
2021/06/15 02:08:11;;;;;;;1.98;1.30;;;;;;;;;;5109260;28;20557;-70
2021/06/15 02:10:38;;;;;;;3.92;2.00;;;;;;;;;;5108817;28;20437;-70
2021/06/15 02:13:04;;;;;;;3.15;1.50;;;;;;;;;;5110454;28;20468;-70
2021/06/15 02:15:30;;;;;;;1.65;1.10;;;;;;;;;;5110362;28;20035;-70
2021/06/15 02:19:26;;;;;;;2.33;1.48;;;;;;;;;;5126347;27;20160;-70
2021/06/15 02:22:08;;;;;;;1.60;1.10;;;;;;;;;;5109269;28;20472;-70
2021/06/15 02:28:18;;;;;;;2.75;1.48;;;;;;;;;;5133180;27;20130;-70
2021/06/15 02:31:39;;;;;;;2.00;1.20;;;;;;;;;;5129510;27;20172;-70
2021/06/15 02:34:07;;;;;;;1.92;1.40;;;;;;;;;;5130982;28;20050;-70
2021/06/15 02:36:35;;;;;;;4.05;1.48;;;;;;;;;;5131004;28;20031;-71
2021/06/15 02:39:06;;;;;;;4.95;1.75;;;;;;;;;;5130676;28;20034;-71
2021/06/15 02:41:34;;;;;;;4.00;1.60;;;;;;;;;;5130889;27;20019;-71
2021/06/15 02:44:02;;;;;;;5.25;1.70;;;;;;;;;;5130763;28;20019;-71
2021/06/15 02:46:31;;;;;;;2.55;1.40;;;;;;;;;;5129002;28;20015;-70
2021/06/15 02:49:44;;;;;;;3.15;1.73;;;;;;;;;;5133329;27;20114;-70
2021/06/15 02:52:13;;;;;;;2.42;1.52;;;;;;;;;;5131272;28;20116;-70
2021/06/15 02:54:48;;;;;;;2.33;1.60;;;;;;;;;;5130657;28;20379;-70
2021/06/15 02:57:15;;;;;;;3.17;1.70;;;;;;;;;;5131101;28;20027;-70
2021/06/15 02:59:42;;;;;;;3.63;1.77;;;;;;;;;;5130527;28;20020;-70
2021/06/15 03:02:08;;;;;;;14.20;2.20;;;;;;;;;;5130832;28;20023;-70
2021/06/15 03:04:34;;;;;;;3.58;1.58;;;;;;;;;;5112562;28;20426;-69
2021/06/15 03:07:54;;;;;;;2.85;1.48;;;;;;;;;;5129415;27;20111;-70
2021/06/15 03:10:21;;;;;;;2.92;1.90;;;;;;;;;;5129655;28;20034;-70
2021/06/15 03:17:27;;;;;;;2.95;1.33;;;;;;;;;;5126604;27;20380;-70
2021/06/15 03:21:13;;;;;;;3.28;1.65;;;;;;;;;;5126026;27;20373;-70
2021/06/15 03:23:43;;;;;;;2.70;1.60;;;;;;;;;;5110562;28;20043;-70
2021/06/15 03:26:13;;;;;;;4.35;1.90;;;;;;;;;;5110420;28;20480;-70
2021/06/15 03:28:41;;;;;;;3.55;1.52;;;;;;;;;;5110026;28;20058;-70
2021/06/15 03:32:29;;;;;;;2.05;1.48;;;;;;;;;;5126631;27;20373;-70
2021/06/15 03:34:57;;;;;;;4.93;1.90;;;;;;;;;;5109074;28;20044;-70
2021/06/15 03:39:58;;;;;;;2.53;1.27;;;;;;;;;;5126236;27;20396;-71
2021/06/15 03:42:26;;;;;;;2.88;1.65;;;;;;;;;;5110165;28;20484;-70
2021/06/15 03:45:27;;;;;;;4.53;2.25;;;;;;;;;;5126383;27;20385;-71
2021/06/15 03:47:54;;;;;;;12.55;3.10;;;;;;;;;;5110607;28;20036;-70
2021/06/15 03:50:20;;;;;;;6.18;2.45;;;;;;;;;;5108792;28;20527;-70
2021/06/15 03:54:40;;;;;;;2.45;1.67;;;;;;;;;;5126634;27;20144;-70
2021/06/15 03:57:06;;;;;;;3.63;1.92;;;;;;;;;;5109057;28;20023;-71
2021/06/15 03:59:34;;;;;;;3.40;1.77;;;;;;;;;;5110414;28;20053;-71
2021/06/15 04:02:05;;;;;;;4.28;1.90;;;;;;;;;;5109081;28;20035;-70
2021/06/15 04:04:33;;;;;;;2.97;1.77;;;;;;;;;;5109967;28;20102;-70
2021/06/15 04:06:59;;;;;;;3.63;1.45;;;;;;;;;;5110397;28;20503;-70
2021/06/15 04:09:32;;;;;;;5.20;2.20;;;;;;;;;;5110391;28;20023;-70
2021/06/15 04:11:59;;;;;;;2.95;1.83;;;;;;;;;;5108515;28;20440;-73
2021/06/15 04:14:26;;;;;;;2.40;1.63;;;;;;;;;;5110233;28;20039;-71
2021/06/15 04:21:46;;;;;;;4.43;1.63;;;;;;;;;;5126441;27;20381;-70
2021/06/15 04:24:15;;;;;;;3.20;1.73;;;;;;;;;;5110104;28;20020;-71
2021/06/15 04:26:41;;;;;;;3.08;1.85;;;;;;;;;;5109172;28;20097;-70
2021/06/15 04:29:55;;;;;;;4.38;2.25;;;;;;;;;;5133204;27;20463;-71
2021/06/15 04:32:23;;;;;;;6.35;2.15;;;;;;;;;;5130619;28;20680;-71
2021/06/15 04:34:56;;;;;;;2.25;1.63;;;;;;;;;;5131050;28;20027;-70
2021/06/15 04:37:23;;;;;;;3.63;1.92;;;;;;;;;;5131159;28;20055;-71
2021/06/15 04:42:18;;;;;;;7.55;2.10;;;;;;;;;;5133391;27;20122;-71
2021/06/15 04:44:45;;;;;;;13.13;2.42;;;;;;;;;;5131040;28;20023;-70
2021/06/15 04:47:25;;;;;;;4.50;1.98;;;;;;;;;;5130528;28;20038;-71
2021/06/15 04:49:55;;;;;;;7.88;2.20;;;;;;;;;;5112416;28;20019;-70
2021/06/15 04:52:23;;;;;;;5.03;2.00;;;;;;;;;;5130349;28;20072;-70
2021/06/15 04:54:50;;;;;;;3.58;1.73;;;;;;;;;;5130924;28;20024;-70
2021/06/15 04:59:08;;;;;;;4.38;2.33;;;;;;;;;;5126055;27;20373;-70
2021/06/15 05:01:51;;;;;;;4.65;1.50;;;;;;;;;;5126463;27;20376;-70
2021/06/15 05:07:05;;;;;;;2.03;1.70;;;;;;;;;;5129515;27;20108;-72
2021/06/15 05:11:21;;;;;;;4.82;2.08;;;;;;;;;;5123859;27;20600;-74
2021/06/15 05:14:44;;;;;;;3.50;1.73;;;;;;;;;;5124951;27;20380;-75
2021/06/15 05:17:48;;;;;;;2.50;1.58;;;;;;;;;;5126798;27;20376;-74
2021/06/15 05:20:14;;;;;;;4.10;1.80;;;;;;;;;;5110071;28;20024;-74
2021/06/15 05:24:36;;;;;;;5.40;1.67;;;;;;;;;;5126237;27;20381;-75
2021/06/15 05:27:03;;;;;;;2.95;1.70;;;;;;;;;;5109245;28;20039;-75
2021/06/15 05:29:29;;;;;;;7.13;2.05;;;;;;;;;;5109934;28;20480;-74
2021/06/15 05:31:56;;;;;;;7.90;2.08;;;;;;;;;;5107688;28;20024;-76
2021/06/15 05:34:22;;;;;;;3.83;1.73;;;;;;;;;;5109502;28;20077;-74
2021/06/15 05:36:49;;;;;;;2.33;1.50;;;;;;;;;;5110356;28;20115;-74
2021/06/15 05:39:15;;;;;;;7.68;1.58;;;;;;;;;;5110383;28;20015;-75
2021/06/15 05:41:42;;;;;;;4.25;1.92;;;;;;;;;;5108970;28;20062;-74
2021/06/15 05:44:08;;;;;;;5.00;2.30;;;;;;;;;;5108953;28;20031;-74
2021/06/15 05:46:34;;;;;;;5.93;2.22;;;;;;;;;;5110389;28;20099;-73
2021/06/15 05:50:31;;;;;;;3.25;1.65;;;;;;;;;;5121195;27;20380;-74
2021/06/15 05:52:57;;;;;;;3.38;1.70;;;;;;;;;;5108118;28;20126;-73
2021/06/15 05:55:23;;;;;;;8.98;2.53;;;;;;;;;;5109940;28;20050;-77
2021/06/15 05:57:50;;;;;;;6.53;1.85;;;;;;;;;;5110811;28;20443;-73
2021/06/15 06:00:17;;;;;;;4.25;1.60;;;;;;;;;;5109505;28;20357;-73
2021/06/15 06:03:29;;;;;;;5.05;1.58;;;;;;;;;;5124652;27;20380;-76
2021/06/15 06:10:46;;;;;;;3.78;1.70;;;;;;;;;;5132759;27;20598;-74
2021/06/15 06:13:12;;;;;;;5.30;2.00;;;;;;;;;;5110394;28;20023;-74
2021/06/15 06:15:39;;;;;;;5.93;2.08;;;;;;;;;;5130316;28;20051;-76
2021/06/15 06:18:08;;;;;;;12.77;3.60;;;;;;;;;;5130960;28;20479;-76
2021/06/15 06:20:34;;;;;;;11.05;2.83;;;;;;;;;;5130785;28;20020;-76
2021/06/15 06:23:00;;;;;;;3.85;1.65;;;;;;;;;;5129722;28;20048;-75
2021/06/15 06:25:27;;;;;;;3.47;1.90;;;;;;;;;;5112013;28;20072;-76
2021/06/15 06:29:08;;;;;;;3.03;1.83;;;;;;;;;;5123553;27;21054;-74
2021/06/15 06:32:59;;;;;;;9.48;2.35;;;;;;;;;;5124712;27;20385;-72
2021/06/15 06:35:25;;;;;;;4.93;2.20;;;;;;;;;;5108125;28;20022;-76
2021/06/15 06:39:46;;;;;;;3.67;2.30;;;;;;;;;;5124971;27;20377;-72
2021/06/15 06:43:13;;;;;;;6.20;2.10;;;;;;;;;;5129479;27;20127;-71
2021/06/15 06:45:39;;;;;;;5.68;2.45;;;;;;;;;;5104038;28;20020;-72
2021/06/15 06:48:08;;;;;;;8.88;3.45;;;;;;;;;;5088802;28;20029;-69
2021/06/15 06:52:42;;;;;;;7.38;3.40;;;;;;;;;;5125249;27;20388;-68
2021/06/15 06:55:09;;;;;;;4.68;2.28;;;;;;;;;;5106977;28;20682;-69
2021/06/15 06:57:35;;;;;;;12.00;2.75;;;;;;;;;;5109536;28;20080;-70
2021/06/15 07:00:17;;;;;;;6.20;3.83;;;;;;;;;;5124328;27;20845;-68
2021/06/15 07:02:44;;;;;;;8.13;3.38;;;;;;;;;;5107819;28;20032;-68
2021/06/15 07:05:52;;;;;;;6.03;2.20;;;;;;;;;;5117193;27;20410;-69
2021/06/15 07:08:18;;;;;;;4.70;2.40;;;;;;;;;;5087690;28;20028;-69
2021/06/15 07:12:36;;;;;;;12.20;3.25;;;;;;;;;;5123090;27;20380;-70
2021/06/15 07:16:45;;;;;;;13.52;2.22;;;;;;;;;;5122919;27;20412;-70
2021/06/15 07:19:11;;;;;;;7.18;2.50;;;;;;;;;;5107936;28;20059;-71
2021/06/15 07:21:38;;;;;;;4.72;2.00;;;;;;;;;;5106572;28;20024;-72
2021/06/15 07:24:04;;;;;;;4.38;1.77;;;;;;;;;;5108199;28;20073;-72
2021/06/15 07:26:30;;;;;;;8.23;2.28;;;;;;;;;;5104219;28;20444;-73
2021/06/15 07:30:26;;;;;;;4.30;2.15;;;;;;;;;;5124023;27;20384;-71
2021/06/15 07:32:57;;;;;;;3.80;1.95;;;;;;;;;;5107724;28;20387;-70
2021/06/15 07:35:24;;;;;;;2.72;1.75;;;;;;;;;;5108019;28;20061;-71
2021/06/15 07:38:15;;;;;;;4.65;1.80;;;;;;;;;;5123910;27;20729;-71
2021/06/15 07:41:19;;;;;;;2.67;1.65;;;;;;;;;;5121802;27;20373;-71
2021/06/15 07:43:45;;;;;;;4.68;1.70;;;;;;;;;;5108502;28;20036;-71
2021/06/15 07:46:14;;;;;;;3.20;1.85;;;;;;;;;;5107962;28;20666;-72
2021/06/15 07:48:40;;;;;;;5.70;1.95;;;;;;;;;;5106137;28;20077;-70
2021/06/15 07:51:06;;;;;;;4.68;1.80;;;;;;;;;;5109222;28;20440;-70
2021/06/15 07:54:11;;;;;;;3.50;1.55;;;;;;;;;;5124915;27;20785;-69
2021/06/15 07:56:37;;;;;;;4.18;1.83;;;;;;;;;;5106808;28;20441;-70
2021/06/15 07:59:58;;;;;;;5.22;1.80;;;;;;;;;;5123782;27;20369;-69
2021/06/15 08:02:24;;;;;;;2.38;1.42;;;;;;;;;;5108638;28;20482;-70
2021/06/15 08:04:51;;;;;;;2.88;1.50;;;;;;;;;;5107447;28;20422;-69
2021/06/15 08:07:17;;;;;;;4.35;1.83;;;;;;;;;;5108324;28;20051;-70
2021/06/15 08:09:43;;;;;;;3.75;1.58;;;;;;;;;;5109491;28;20531;-69
2021/06/15 08:12:09;;;;;;;3.78;1.58;;;;;;;;;;5109733;28;20020;-70
2021/06/15 08:14:35;;;;;;;3.78;1.88;;;;;;;;;;5109771;28;20147;-70
2021/06/15 08:17:02;;;;;;;3.00;1.38;;;;;;;;;;5108978;28;20039;-69
2021/06/15 08:19:28;;;;;;;5.68;2.22;;;;;;;;;;5099538;28;20036;-69
2021/06/15 08:21:54;;;;;;;3.13;1.77;;;;;;;;;;5108402;28;20472;-69
2021/06/15 08:24:20;;;;;;;3.92;1.95;;;;;;;;;;5108619;28;20357;-71
2021/06/15 08:26:47;;;;;;;4.68;1.30;;;;;;;;;;5109064;28;20064;-70
2021/06/15 08:29:13;;;;;;;4.07;1.77;;;;;;;;;;5106557;28;20027;-70
2021/06/15 08:31:39;;;;;;;6.38;2.08;;;;;;;;;;5102461;28;20090;-71
2021/06/15 08:34:05;;;;;;;10.27;2.33;;;;;;;;;;5104917;28;20028;-71
2021/06/15 08:36:48;;;;;;;3.65;1.90;;;;;;;;;;5117688;27;20119;-71
2021/06/15 08:41:56;;;;;;;1.65;1.20;;;;;;;;;;5125821;27;20373;-70
2021/06/15 08:45:50;;;;;;;7.00;1.40;;;;;;;;;;5119539;27;20407;-71
2021/06/15 08:48:16;;;;;;;5.25;1.63;;;;;;;;;;5080601;28;20480;-70
2021/06/15 08:50:44;;;;;;;4.32;1.30;;;;;;;;;;5084993;28;20066;-71
2021/06/15 08:53:11;;;;;;;3.33;1.30;;;;;;;;;;5084642;28;20024;-71
2021/06/15 08:55:39;;;;;;;5.05;1.40;;;;;;;;;;5086906;28;20043;-71
2021/06/15 09:01:01;;;;;;;2.53;1.25;;;;;;;;;;5124405;27;20381;-69
2021/06/15 09:04:05;;;;;;;5.25;1.60;;;;;;;;;;5124784;27;20373;-71
2021/06/15 09:06:31;;;;;;;2.10;1.23;;;;;;;;;;5106403;28;20039;-72
2021/06/15 09:09:39;;;;;;;3.67;1.60;;;;;;;;;;5124320;27;20382;-72
2021/06/15 09:12:06;;;;;;;2.33;1.30;;;;;;;;;;5108443;28;20483;-74
2021/06/15 09:14:41;;;;;;;2.13;1.17;;;;;;;;;;5107474;28;20024;-74
2021/06/15 09:18:42;;;;;;;2.92;1.70;;;;;;;;;;5124997;27;20369;-72
2021/06/15 09:21:09;;;;;;;3.42;1.40;;;;;;;;;;5108510;28;20052;-71
2021/06/15 09:23:36;;;;;;;3.00;1.60;;;;;;;;;;5110160;28;20024;-72
2021/06/15 09:26:49;;;;;;;3.03;1.70;;;;;;;;;;5124003;27;20137;-74
2021/06/15 09:29:16;;;;;;;2.17;1.35;;;;;;;;;;5108230;28;20093;-74
2021/06/15 09:31:53;;;;;;;5.78;1.33;;;;;;;;;;5097062;28;20023;-74
2021/06/15 09:35:47;;;;;;;2.50;1.67;;;;;;;;;;5132150;27;20111;-72
2021/06/15 09:38:13;;;;;;;1.83;1.00;;;;;;;;;;5129526;28;20027;-74
2021/06/15 09:40:40;;;;;;;1.35;1.00;;;;;;;;;;5130013;28;20421;-75
2021/06/15 09:43:06;;;;;;;1.70;0.90;;;;;;;;;;5111874;28;20462;-73
2021/06/15 09:45:37;;;;;;;2.28;1.40;;;;;;;;;;5114195;28;20015;-75
2021/06/15 09:48:25;;;;;;;3.00;1.35;;;;;;;;;;5129234;28;20028;-74
2021/06/15 09:50:53;;;;;;;1.80;1.17;;;;;;;;;;5110636;28;20015;-75
2021/06/15 09:53:24;;;;;;;3.85;1.50;;;;;;;;;;5110375;28;20519;-73
2021/06/15 09:55:50;;;;;;;3.60;1.20;;;;;;;;;;5128736;28;20028;-74
2021/06/15 09:58:16;;;;;;;1.95;1.23;;;;;;;;;;5130368;28;20371;-76
2021/06/15 10:00:43;;;;;;;8.93;1.95;;;;;;;;;;5130534;28;20073;-74
2021/06/15 10:03:16;;;;;;;2.55;1.20;;;;;;;;;;5112080;28;20019;-74
2021/06/15 10:05:42;;;;;;;;;;;;;;;;;;5112539;28;20027;-74
2021/06/15 10:08:11;;;;;;;5.03;1.65;;;;;;;;;;5130386;28;19903;-74
2021/06/15 10:10:44;;;;;;;7.55;1.92;;;;;;;;;;5130130;28;20019;-75
2021/06/15 10:13:11;;;;;;;33.17;18.13;;;;;;;;;;5129079;28;20159;-73
2021/06/15 10:15:45;;;;;;;24.98;12.10;;;;;;;;;;5126369;27;20368;-72
2021/06/15 10:18:12;;;;;;;8.70;4.13;;;;;;;;;;5110823;28;20024;-72
2021/06/15 10:20:38;;;;;;;4.60;2.05;;;;;;;;;;5109234;28;20108;-74
2021/06/15 10:23:05;;;;;;;4.63;1.50;;;;;;;;;;5110107;28;20016;-74
2021/06/15 10:25:32;;;;;;;2.45;1.40;;;;;;;;;;5102882;28;20024;-73
2021/06/15 10:27:59;;;;;;;3.65;1.65;;;;;;;;;;5109020;28;20139;-71
2021/06/15 10:30:29;;;;;;;2.25;1.23;;;;;;;;;;5109513;28;20016;-74
2021/06/15 10:32:57;;;;;;;8.27;1.33;;;;;;;;;;5105143;28;20102;-73
2021/06/15 10:35:43;;;;;;;2.92;1.10;;;;;;;;;;5107667;28;20051;-74
2021/06/15 10:38:10;;;;;;;2.22;1.17;;;;;;;;;;5107108;28;20047;-72
2021/06/15 10:40:38;;;;;;;2.33;1.00;;;;;;;;;;5108095;28;20477;-75
2021/06/15 10:43:15;;;;;;;2.45;1.10;;;;;;;;;;5107591;28;20507;-72
2021/06/15 10:45:42;;;;;;;5.05;1.13;;;;;;;;;;5107364;28;20023;-71
2021/06/15 10:48:17;;;;;;;1.67;0.88;;;;;;;;;;5107855;28;20094;-70
2021/06/15 10:50:47;;;;;;;2.42;1.13;;;;;;;;;;5107604;28;20392;-71
2021/06/15 10:53:14;;;;;;;1.33;0.88;;;;;;;;;;5106093;28;20387;-71
2021/06/15 10:56:01;;;;;;;2.95;1.10;;;;;;;;;;5108595;28;20111;-71
2021/06/15 10:58:33;;;;;;;2.42;1.02;;;;;;;;;;5107520;28;20035;-71
2021/06/15 11:01:19;;;;;;;1.92;0.93;;;;;;;;;;5106402;28;20026;-70
2021/06/15 11:03:46;;;;;;;2.45;1.15;;;;;;;;;;5107385;28;20055;-71
2021/06/15 11:06:13;;;;;;;5.68;1.08;;;;;;;;;;5107347;28;20379;-71
2021/06/15 11:08:39;;;;;;;1.35;0.82;;;;;;;;;;5107409;28;20051;-72
2021/06/15 11:11:19;;;;;;;7.25;1.13;;;;;;;;;;5106188;28;20413;-71
2021/06/15 11:13:47;;;;;;;6.28;0.98;;;;;;;;;;5106546;28;20149;-71
2021/06/15 11:16:20;;;;;;;3.85;0.75;;;;;;;;;;5106926;28;20051;-71
2021/06/15 11:18:47;;;;;;;5.60;1.08;;;;;;;;;;5106954;28;20024;-71
2021/06/15 11:21:25;;;;;;;5.45;1.20;;;;;;;;;;5108732;28;20092;-71
2021/06/15 11:24:11;;;;;;;3.22;0.90;;;;;;;;;;5109120;28;20097;-71
2021/06/15 11:26:38;;;;;;;4.30;1.45;;;;;;;;;;5079685;28;20035;-71
2021/06/15 11:29:04;;;;;;;3.70;0.90;;;;;;;;;;5093257;28;20032;-72
2021/06/15 11:31:31;;;;;;;2.78;0.80;;;;;;;;;;5095042;28;20051;-72
2021/06/15 11:34:26;;;;;;;10.40;1.35;;;;;;;;;;5095183;28;20028;-71
2021/06/15 11:36:54;;;;;;;4.90;1.02;;;;;;;;;;5094231;28;20040;-71
2021/06/15 11:39:30;;;;;;;4.57;1.15;;;;;;;;;;5095189;28;20482;-71
2021/06/15 11:42:19;;;;;;;2.38;0.70;;;;;;;;;;5093549;28;20081;-71
2021/06/15 11:44:48;;;;;;;2.00;0.57;;;;;;;;;;5094796;28;20024;-71
2021/06/15 11:47:30;;;;;;;2.00;1.02;;;;;;;;;;5094009;28;20099;-71
2021/06/15 11:50:08;;;;;;;2.10;0.93;;;;;;;;;;5094843;28;20078;-71
2021/06/15 11:52:35;;;;;;;2.55;1.10;;;;;;;;;;5094872;28;20028;-71
2021/06/15 11:55:01;;;;;;;1.50;0.90;;;;;;;;;;5093319;28;20039;-71
2021/06/15 11:57:27;;;;;;;4.82;1.35;;;;;;;;;;5094636;28;20515;-71
2021/06/15 11:59:54;;;;;;;2.88;1.30;;;;;;;;;;5092121;28;20035;-72
2021/06/15 12:02:20;;;;;;;1.35;1.00;;;;;;;;;;5091654;28;20548;-71
2021/06/15 12:05:03;;;;;;;5.75;1.33;;;;;;;;;;5093686;28;20032;-70
2021/06/15 12:07:30;;;;;;;6.00;1.00;;;;;;;;;;5093868;28;20145;-71
2021/06/15 12:10:04;;;;;;;5.00;1.08;;;;;;;;;;5093407;28;20411;-71
2021/06/15 12:12:30;;;;;;;2.42;1.02;;;;;;;;;;5092772;28;20669;-71
2021/06/15 12:14:56;;;;;;;4.70;1.42;;;;;;;;;;5091868;28;20087;-71
2021/06/15 12:17:23;;;;;;;2.17;1.25;;;;;;;;;;5090745;28;20107;-71
2021/06/15 12:19:49;;;;;;;6.70;1.15;;;;;;;;;;5093290;28;20027;-71
2021/06/15 12:22:15;;;;;;;2.75;0.95;;;;;;;;;;5093082;28;20023;-71
2021/06/15 12:24:46;;;;;;;1.25;0.63;;;;;;;;;;5091999;28;20086;-71
2021/06/15 12:27:21;;;;;;;0.95;0.80;;;;;;;;;;5094202;28;20024;-71
2021/06/15 12:29:48;;;;;;;1.35;0.90;;;;;;;;;;5093801;28;20101;-72
2021/06/15 12:32:14;;;;;;;4.25;1.77;;;;;;;;;;5094293;28;20024;-72
2021/06/15 12:34:40;;;;;;;3.20;1.10;;;;;;;;;;5093459;28;20077;-71
2021/06/15 12:37:06;;;;;;;1.70;1.00;;;;;;;;;;5091695;28;20096;-71
2021/06/15 12:39:37;;;;;;;3.33;1.02;;;;;;;;;;5093974;28;20392;-72
2021/06/15 12:42:05;;;;;;;1.85;1.08;;;;;;;;;;5094124;28;20043;-72
2021/06/15 12:44:33;;;;;;;2.22;1.02;;;;;;;;;;5093207;28;20028;-71
2021/06/15 12:47:00;;;;;;;1.30;0.88;;;;;;;;;;5093679;28;20542;-71
2021/06/15 12:49:27;;;;;;;1.13;0.80;;;;;;;;;;5093381;28;20020;-71
2021/06/15 12:51:58;;;;;;;0.95;0.75;;;;;;;;;;5093579;28;20743;-71
2021/06/15 12:54:36;;;;;;;1.45;0.98;;;;;;;;;;5092677;28;20047;-72
2021/06/15 12:57:08;;;;;;;2.78;1.10;;;;;;;;;;5092743;28;20040;-71
2021/06/15 12:59:36;;;;;;;2.20;1.20;;;;;;;;;;5092137;28;20056;-72
2021/06/15 13:02:11;;;;;;;1.08;0.80;;;;;;;;;;5092377;28;20036;-71
2021/06/15 13:04:46;;;;;;;1.70;0.77;;;;;;;;;;5093311;28;20032;-72
2021/06/15 13:07:12;;;;;;;2.08;1.05;;;;;;;;;;5093715;28;20108;-71
2021/06/15 13:09:39;;;;;;;4.72;1.70;;;;;;;;;;5093588;28;20028;-71
2021/06/15 13:12:06;;;;;;;8.48;1.10;;;;;;;;;;5093073;28;20099;-71
2021/06/15 13:14:34;;;;;;;1.27;0.75;;;;;;;;;;5093529;28;20044;-71
2021/06/15 13:17:05;;;;;;;1.67;0.80;;;;;;;;;;5093557;28;20031;-72
2021/06/15 13:19:38;;;;;;;2.15;1.02;;;;;;;;;;5093080;28;20020;-71
2021/06/15 13:22:05;;;;;;;2.13;0.90;;;;;;;;;;5092193;28;20024;-71
2021/06/15 13:24:32;;;;;;;1.35;0.70;;;;;;;;;;5093288;28;20472;-71
2021/06/15 13:26:58;;;;;;;4.00;0.85;;;;;;;;;;5091551;28;20032;-71
2021/06/15 13:29:28;;;;;;;3.42;1.00;;;;;;;;;;5093092;28;20047;-71
2021/06/15 13:31:55;;;;;;;0.88;0.77;;;;;;;;;;5093164;28;20016;-71
2021/06/15 13:34:21;;;;;;;5.38;0.82;;;;;;;;;;5091583;28;20032;-71
2021/06/15 13:36:47;;;;;;;6.63;1.02;;;;;;;;;;5093252;28;20032;-71
2021/06/15 13:39:16;;;;;;;0.98;0.75;;;;;;;;;;5093053;28;20375;-71
2021/06/15 13:41:42;;;;;;;0.68;0.60;;;;;;;;;;5092634;28;20016;-71
2021/06/15 13:44:09;;;;;;;2.15;0.50;;;;;;;;;;5093087;28;20095;-71
2021/06/15 13:46:37;;;;;;;0.95;0.63;;;;;;;;;;5092479;28;20043;-72
2021/06/15 13:49:07;;;;;;;1.45;0.77;;;;;;;;;;5091334;28;20087;-71
2021/06/15 13:51:33;;;;;;;2.80;0.73;;;;;;;;;;5092950;28;20048;-71
2021/06/15 13:54:01;;;;;;;1.95;0.73;;;;;;;;;;5091314;28;20028;-71
2021/06/15 13:56:28;;;;;;;1.42;0.70;;;;;;;;;;5092986;28;20103;-71
2021/06/15 13:58:57;;;;;;;1.00;0.80;;;;;;;;;;5092808;28;20030;-70
2021/06/15 14:01:24;;;;;;;1.88;0.73;;;;;;;;;;5091113;28;20051;-70
2021/06/15 14:03:50;;;;;;;0.95;0.63;;;;;;;;;;5092353;28;20474;-70
2021/06/15 14:06:16;;;;;;;2.22;0.82;;;;;;;;;;5092782;28;20028;-70
2021/06/15 14:08:43;;;;;;;4.35;1.35;;;;;;;;;;5092285;28;20380;-70
2021/06/15 14:11:09;;;;;;;2.10;0.90;;;;;;;;;;5091272;28;20593;-70
2021/06/15 14:13:37;;;;;;;3.15;1.05;;;;;;;;;;5092439;28;20034;-70
2021/06/15 14:16:03;;;;;;;0.77;0.68;;;;;;;;;;5090993;28;20024;-70
2021/06/15 14:18:29;;;;;;;4.05;1.15;;;;;;;;;;5092699;28;20027;-70
2021/06/15 14:20:56;;;;;;;3.40;1.05;;;;;;;;;;5092501;28;20016;-70
2021/06/15 14:23:22;;;;;;;1.65;0.88;;;;;;;;;;5092037;28;20024;-70
2021/06/15 14:25:48;;;;;;;2.63;1.00;;;;;;;;;;5092463;28;20028;-70
2021/06/15 14:28:14;;;;;;;2.47;0.90;;;;;;;;;;5092449;28;20070;-70
2021/06/15 14:30:44;;;;;;;1.10;0.57;;;;;;;;;;5092009;28;20021;-71
2021/06/15 14:33:11;;;;;;;1.45;0.57;;;;;;;;;;5090732;28;20103;-71
2021/06/15 14:35:37;;;;;;;2.88;0.75;;;;;;;;;;5091001;28;20120;-71
2021/06/15 14:38:03;;;;;;;1.17;0.77;;;;;;;;;;5089273;28;20024;-71
2021/06/15 14:40:29;;;;;;;1.50;0.65;;;;;;;;;;5091499;28;20480;-71
2021/06/15 14:42:55;;;;;;;0.90;0.77;;;;;;;;;;5090174;28;20469;-71
2021/06/15 14:45:22;;;;;;;2.63;0.80;;;;;;;;;;5089410;28;20400;-71
2021/06/15 14:47:48;;;;;;;1.83;0.80;;;;;;;;;;5089946;28;20090;-71
2021/06/15 14:50:16;;;;;;;2.28;0.82;;;;;;;;;;5089655;28;20028;-71
2021/06/15 14:52:42;;;;;;;2.10;0.70;;;;;;;;;;5090089;28;20024;-72
2021/06/15 14:55:09;;;;;;;1.20;0.60;;;;;;;;;;5090016;28;20040;-71
2021/06/15 14:57:35;;;;;;;2.15;0.70;;;;;;;;;;5091928;28;20028;-71
2021/06/15 15:00:03;;;;;;;1.00;0.75;;;;;;;;;;5090890;28;20016;-71
2021/06/15 15:02:29;;;;;;;0.90;0.55;;;;;;;;;;5094446;28;20020;-71
2021/06/15 15:04:55;;;;;;;2.15;0.70;;;;;;;;;;5095660;28;20571;-71
2021/06/15 15:07:21;;;;;;;2.80;1.10;;;;;;;;;;5095942;28;20020;-71
2021/06/15 15:09:48;;;;;;;2.30;1.17;;;;;;;;;;5096089;28;20020;-71
2021/06/15 15:12:14;;;;;;;0.70;0.70;;;;;;;;;;5095708;28;20031;-71
2021/06/15 15:14:40;;;;;;;0.88;0.70;;;;;;;;;;5095484;28;20507;-70
2021/06/15 15:17:09;;;;;;;1.88;0.80;;;;;;;;;;5095830;28;20028;-70
2021/06/15 15:19:36;;;;;;;2.28;0.73;;;;;;;;;;5095379;28;20419;-70
2021/06/15 15:22:02;;;;;;;1.45;0.75;;;;;;;;;;5095608;28;20028;-70
2021/06/15 15:24:28;;;;;;;3.85;0.98;;;;;;;;;;5095597;28;20032;-71
2021/06/15 15:26:55;;;;;;;1.10;0.90;;;;;;;;;;5095279;28;20020;-70
2021/06/15 15:29:21;;;;;;;3.55;0.95;;;;;;;;;;5095662;28;20026;-71
2021/06/15 15:31:47;;;;;;;1.35;1.15;;;;;;;;;;5094371;28;20035;-70
2021/06/15 15:34:13;;;;;;;6.13;1.30;;;;;;;;;;5093765;28;20081;-72
2021/06/15 15:36:40;;;;;;;2.70;0.80;;;;;;;;;;5095420;28;20012;-72
2021/06/15 15:39:06;;;;;;;2.70;0.80;;;;;;;;;;5095082;28;20100;-72
2021/06/15 15:41:32;;;;;;;4.22;0.95;;;;;;;;;;5095407;28;20111;-71
2021/06/15 15:43:59;;;;;;;0.90;0.57;;;;;;;;;;5095259;28;20039;-71
2021/06/15 15:46:26;;;;;;;2.45;1.00;;;;;;;;;;5094920;28;20020;-71
2021/06/15 15:48:54;;;;;;;0.90;0.70;;;;;;;;;;5095343;28;20028;-72
2021/06/15 15:51:21;;;;;;;1.50;0.52;;;;;;;;;;5094076;28;20116;-71
2021/06/15 15:53:47;;;;;;;5.25;1.17;;;;;;;;;;5094807;28;20067;-72
2021/06/15 15:56:13;;;;;;;5.95;1.83;;;;;;;;;;5093749;28;20484;-71
2021/06/15 15:58:40;;;;;;;3.85;1.30;;;;;;;;;;5093529;28;20388;-72
2021/06/15 16:01:07;;;;;;;1.77;1.15;;;;;;;;;;5094399;28;20123;-71
2021/06/15 16:03:33;;;;;;;3.22;1.20;;;;;;;;;;5094578;28;20091;-71
2021/06/15 16:06:00;;;;;;;1.15;0.90;;;;;;;;;;5094782;28;20353;-71
2021/06/15 16:08:26;;;;;;;1.52;0.73;;;;;;;;;;5094503;28;20385;-71
2021/06/15 16:10:53;;;;;;;1.55;0.98;;;;;;;;;;5095015;28;20376;-71
2021/06/15 16:13:19;;;;;;;8.70;1.10;;;;;;;;;;5094647;28;20020;-71
2021/06/15 16:15:45;;;;;;;6.93;1.30;;;;;;;;;;5094170;28;20169;-71
2021/06/15 16:18:12;;;;;;;1.02;0.93;;;;;;;;;;5094648;28;20031;-71
2021/06/15 16:20:39;;;;;;;1.23;0.90;;;;;;;;;;5094620;28;20020;-71
2021/06/15 16:23:06;;;;;;;3.42;1.10;;;;;;;;;;5092773;28;20464;-71
2021/06/15 16:25:32;;;;;;;1.33;1.10;;;;;;;;;;5093043;28;20028;-71
2021/06/15 16:27:59;;;;;;;6.10;2.30;;;;;;;;;;5094413;28;20024;-71
2021/06/15 16:30:26;;;;;;;3.05;1.48;;;;;;;;;;5092850;28;20445;-71